Time;durP1;ratioP1;P1;durP2;ratioP2;P2;SDS_P1;SDS_P2;PMS_P1;PMS_P2;Temp;Humidity;BMP_temperature;BMP_pressure;BME280_temperature;BME280_humidity;BME280_pressure;Samples;Min_cycle;Max_cycle;Signal;HPM_P1;HPM_P2
2022/05/13 00:02:44;;;;;;;1.45;0.60;;;;;;;;;;21051493;28;20674;-66
2022/05/13 00:12:45;;;;;;;2.05;0.52;;;;;;;;;;21050471;28;20672;-66
2022/05/13 00:22:49;;;;;;;0.50;0.30;;;;;;;;;;21050081;28;20267;-66
2022/05/13 00:32:51;;;;;;;2.75;0.70;;;;;;;;;;21049052;28;20642;-66
2022/05/13 00:43:02;;;;;;;0.85;0.40;;;21.90;99.90;;;;;;21110411;28;20209;-66
2022/05/13 00:53:04;;;;;;;1.20;0.50;;;21.70;99.90;;;;;;21131319;28;20243;-66
2022/05/13 01:03:07;;;;;;;1.90;0.52;;;;;;;;;;21130838;28;20239;-66
2022/05/13 01:13:13;;;;;;;0.82;0.50;;;21.60;99.90;;;;;;21113447;28;20270;-66
2022/05/13 01:23:26;;;;;;;0.63;0.40;;;;;;;;;;21145915;28;20207;-66
2022/05/13 01:33:28;;;;;;;1.27;0.43;;;;;;;;;;21119851;28;20216;-66
2022/05/13 01:43:30;;;;;;;2.20;0.50;;;;;;;;;;21027023;28;20841;-66
2022/05/13 01:53:32;;;;;;;1.13;0.55;;;21.40;99.90;;;;;;21042563;28;20579;-66
2022/05/13 02:03:46;;;;;;;0.43;0.37;;;20.40;99.90;;;;;;21040474;28;20216;-66
2022/05/13 02:13:49;;;;;;;2.07;0.93;;;;;;;;;;21057730;28;20267;-66
2022/05/13 02:23:52;;;;;;;2.43;0.60;;;21.00;99.90;;;;;;21082805;28;20223;-66
2022/05/13 02:33:58;;;;;;;1.70;0.60;;;;;;;;;;21040585;28;20281;-67
2022/05/13 02:44:00;;;;;;;0.57;0.30;;;;;;;;;;21039103;28;20217;-67
2022/05/13 02:54:02;;;;;;;1.60;0.60;;;;;;;;;;21038824;28;20535;-66
2022/05/13 03:04:04;;;;;;;1.57;0.53;;;20.80;99.90;;;;;;21053900;28;20683;-67
2022/05/13 03:14:06;;;;;;;1.47;0.60;;;;;;;;;;21037360;28;20243;-66
2022/05/13 03:24:08;;;;;;;1.67;0.57;;;;;;;;;;21054019;28;20323;-66
2022/05/13 03:34:11;;;;;;;0.77;0.47;;;;;;;;;;21099601;28;20215;-67
2022/05/13 03:44:12;;;;;;;1.23;0.60;;;;;;;;;;21106995;28;20254;-66
2022/05/13 03:54:15;;;;;;;1.07;0.50;;;;;;;;;;21144436;27;20255;-67
2022/05/13 04:04:21;;;;;;;1.40;0.60;;;;;;;;;;21105251;28;20211;-67
2022/05/13 04:24:44;;;;;;;6.23;0.93;;;;;;;;;;21074258;27;20218;-67
2022/05/13 04:34:45;;;;;;;1.07;0.43;;;;;;;;;;21119903;27;20268;-67
2022/05/13 04:44:47;;;;;;;1.90;0.60;;;;;;;;;;21064653;28;20220;-67
2022/05/13 04:54:49;;;;;;;1.43;0.60;;;;;;;;;;21047574;28;20241;-67
2022/05/13 05:04:51;;;;;;;1.47;0.60;;;;;;;;;;21063514;28;20200;-67
2022/05/13 05:14:54;;;;;;;1.47;0.60;;;;;;;;;;21052033;28;20304;-67
2022/05/13 05:25:00;;;;;;;2.87;0.90;;;;;;;;;;21062151;27;20263;-67
2022/05/13 05:35:03;;;;;;;1.27;0.60;;;;;;;;;;21106194;28;20215;-67
2022/05/13 05:45:06;;;;;;;1.60;0.50;;;;;;;;;;21125619;28;20203;-67
2022/05/13 06:05:29;;;;;;;1.23;0.40;;;;;;;;;;21141268;28;20210;-66
2022/05/13 06:15:30;;;;;;;3.83;0.80;;;;;;;;;;21121187;28;20214;-67
2022/05/13 06:25:32;;;;;;;0.97;0.40;;;;;;;;;;21124405;28;20221;-67
2022/05/13 06:35:35;;;;;;;0.70;0.50;;;;;;;;;;21090291;27;20268;-66
2022/05/13 06:45:36;;;;;;;0.63;0.33;;;;;;;;;;21121795;28;20553;-67
2022/05/13 06:55:39;;;;;;;0.83;0.40;;;;;;;;;;21137269;28;20280;-67
2022/05/13 07:05:42;;;;;;;0.57;0.40;;;21.60;99.90;;;;;;21121947;28;20604;-67
2022/05/13 07:15:45;;;;;;;3.10;0.40;;;21.40;99.10;;;;;;21106910;27;20217;-67
2022/05/13 07:25:47;;;;;;;0.67;0.30;;;;;;;;;;21063270;28;20647;-67
2022/05/13 07:35:49;;;;;;;2.33;0.53;;;;;;;;;;21115591;28;20645;-67
2022/05/13 07:45:51;;;;;;;0.87;0.50;;;;;;;;;;21107300;27;20595;-66
2022/05/13 07:55:54;;;;;;;1.27;0.40;;;;;;;;;;21028311;27;20223;-66
2022/05/13 08:06:02;;;;;;;1.10;0.60;;;;;;;;;;21116140;28;20213;-66
2022/05/13 08:16:06;;;;;;;1.80;0.50;;;21.70;99.90;;;;;;21058088;28;20721;-67
2022/05/13 08:26:08;;;;;;;0.67;0.40;;;;;;;;;;21108705;28;20280;-67
2022/05/13 08:36:10;;;;;;;1.30;0.65;;;;;;;;;;21133779;27;20257;-67
2022/05/13 08:46:15;;;;;;;1.83;0.57;;;;;;;;;;21155841;27;20264;-67
2022/05/13 08:56:25;;;;;;;0.30;0.30;;;23.10;92.10;;;;;;21124127;27;20350;-66
2022/05/13 09:06:27;;;;;;;3.17;0.57;;;;;;;;;;21128624;27;20273;-66
2022/05/13 09:16:41;;;;;;;0.68;0.40;;;24.10;85.30;;;;;;21124138;27;20575;-66
2022/05/13 09:26:43;;;;;;;0.70;0.40;;;;;;;;;;21157590;27;20272;-68
2022/05/13 09:36:45;;;;;;;0.63;0.40;;;;;;;;;;21120886;27;20227;-68
2022/05/13 09:46:50;;;;;;;0.65;0.40;;;24.60;84.60;;;;;;21082347;27;20215;-68
2022/05/13 09:57:06;;;;;;;1.25;0.40;;;;;;;;;;21090887;27;20258;-68
2022/05/13 10:07:13;;;;;;;0.28;0.28;;;;;;;;;;21072373;28;20555;-68
2022/05/13 10:17:18;;;;;;;1.02;0.30;;;;;;;;;;21126823;28;20821;-68
2022/05/13 10:27:51;;;;;;;0.57;0.30;;;25.80;77.90;;;;;;21111301;28;20206;-68
2022/05/13 10:38:10;;;;;;;0.45;0.30;;;25.70;72.20;;;;;;21120940;27;20278;-68
2022/05/13 10:48:21;;;;;;;0.57;0.35;;;;;;;;;;21111625;28;20208;-68
2022/05/13 10:58:41;;;;;;;1.58;0.38;;;;;;;;;;21077438;27;20277;-68
2022/05/13 11:09:04;;;;;;;1.05;0.45;;;26.10;65.30;;;;;;21101645;28;20202;-69
2022/05/13 11:19:12;;;;;;;0.38;0.35;;;;;;;;;;21100277;28;20785;-68
2022/05/13 11:29:30;;;;;;;0.82;0.50;;;26.40;75.50;;;;;;21102572;28;20223;-68
2022/05/13 11:39:51;;;;;;;1.42;0.30;;;26.50;66.20;;;;;;21131946;27;20247;-68
2022/05/13 11:49:56;;;;;;;0.77;0.30;;;26.60;74.50;;;;;;21134084;27;20234;-68
2022/05/13 12:00:18;;;;;;;1.05;0.40;;;;;;;;;;21154229;28;20231;-69
2022/05/13 12:10:34;;;;;;;0.25;0.20;;;27.00;71.90;;;;;;21151214;28;20726;-69
2022/05/13 12:20:39;;;;;;;0.17;0.17;;;;;;;;;;21112261;28;20219;-69
2022/05/13 12:30:41;;;;;;;0.75;0.40;;;;;;;;;;21113726;27;20538;-69
2022/05/13 12:40:56;;;;;;;0.93;0.32;;;27.20;69.10;;;;;;21138637;27;20272;-69
2022/05/13 12:51:18;;;;;;;2.67;0.77;;;;;;;;;;21125059;27;20228;-69
2022/05/13 13:01:19;;;;;;;1.00;0.40;;;;;;;;;;21113076;27;20246;-69
2022/05/13 13:11:24;;;;;;;1.33;0.30;;;27.70;67.80;;;;;;21167372;27;20271;-69
2022/05/13 13:21:28;;;;;;;0.80;0.30;;;;;;;;;;21127974;27;20275;-68
2022/05/13 13:31:36;;;;;;;0.55;0.32;;;27.70;70.20;;;;;;21133331;22;20250;-74
2022/05/13 13:41:38;;;;;;;0.95;0.22;;;;;;;;;;20954832;28;20775;-77
2022/05/13 13:51:48;;;;;;;0.98;0.50;;;28.00;68.40;;;;;;20971092;28;20199;-77
2022/05/13 14:01:54;;;;;;;0.20;0.20;;;27.80;64.40;;;;;;20899617;28;20223;-74
2022/05/13 14:11:56;;;;;;;1.20;0.20;;;;;;;;;;20901443;28;20210;-74
2022/05/13 14:22:03;;;;;;;1.17;0.30;;;;;;;;;;20904024;28;20215;-75
2022/05/13 14:32:08;;;;;;;1.00;0.22;;;28.20;66.50;;;;;;20900539;28;20265;-75
2022/05/13 14:42:17;;;;;;;2.55;0.77;;;;;;;;;;20896026;28;20212;-76
2022/05/13 14:52:22;;;;;;;1.23;0.30;;;;;;;;;;20893896;28;20239;-74
2022/05/13 15:02:35;;;;;;;0.88;0.30;;;28.30;65.90;;;;;;20900049;28;20772;-74
2022/05/13 15:12:37;;;;;;;0.57;0.30;;;;;;;;;;20897568;28;20215;-74
2022/05/13 15:22:42;;;;;;;0.50;0.30;;;;;;;;;;20898741;28;20235;-74
2022/05/13 15:32:44;;;;;;;3.60;0.50;;;28.40;63.10;;;;;;20898607;28;20220;-74
2022/05/13 15:42:48;;;;;;;0.45;0.30;;;;;;;;;;20882295;28;20692;-74
2022/05/13 15:52:50;;;;;;;0.70;0.30;;;28.30;58.30;;;;;;20892940;28;20224;-74
2022/05/13 16:02:55;;;;;;;1.75;0.40;;;28.30;69.60;;;;;;20878578;28;20215;-74
2022/05/13 16:13:09;;;;;;;0.82;0.22;;;;;;;;;;20894708;28;20274;-74
2022/05/13 16:23:13;;;;;;;0.65;0.30;;;28.50;67.10;;;;;;20903095;28;20250;-74
2022/05/13 16:33:16;;;;;;;1.13;0.32;;;;;;;;;;20909502;28;20229;-74
2022/05/13 16:43:18;;;;;;;0.50;0.20;;;;;;;;;;20907862;28;20205;-74
2022/05/13 16:53:19;;;;;;;0.25;0.20;;;;;;;;;;20907565;28;20270;-74
2022/05/13 17:03:21;;;;;;;1.23;0.30;;;;;;;;;;20907293;28;20224;-73
2022/05/13 17:23:44;;;;;;;0.82;0.30;;;;;;;;;;20905940;28;20205;-74
2022/05/13 17:33:45;;;;;;;0.57;0.30;;;;;;;;;;20903014;28;20211;-73
2022/05/13 17:43:48;;;;;;;0.90;0.30;;;;;;;;;;20901908;28;20208;-71
2022/05/13 17:53:52;;;;;;;1.10;0.32;;;;;;;;;;20899145;28;20241;-74
2022/05/13 18:03:53;;;;;;;1.83;0.50;;;;;;;;;;20895847;28;20703;-72
2022/05/13 18:13:55;;;;;;;0.50;0.30;;;;;;;;;;20900226;28;20220;-71
2022/05/13 18:23:57;;;;;;;0.20;0.20;;;;;;;;;;20900370;28;20224;-72
2022/05/13 18:34:01;;;;;;;3.65;0.35;;;;;;;;;;20902802;28;20275;-72
2022/05/13 18:54:24;;;;;;;0.17;0.17;;;;;;;;;;20901465;28;20259;-71
2022/05/13 19:04:26;;;;;;;0.57;0.40;;;;;;;;;;20900565;28;20209;-71
2022/05/13 19:14:27;;;;;;;1.35;0.30;;;;;;;;;;20902364;28;20274;-71
2022/05/13 19:24:32;;;;;;;0.95;0.40;;;;;;;;;;20900452;28;20199;-71
2022/05/13 19:34:34;;;;;;;4.78;0.38;;;;;;;;;;20911572;22;20310;-69
2022/05/13 19:44:36;;;;;;;1.10;0.40;;;;;;;;;;20710296;28;20217;-69
2022/05/13 19:54:38;;;;;;;2.80;0.40;;;;;;;;;;20688313;28;20294;-69
2022/05/13 20:10:38;;;;;;;0.50;0.35;;;;;;;;;;20748893;28;20686;-69
2022/05/13 20:15:01;;;;;;;1.05;0.35;;;;;;;;;;20733228;28;20230;-69
2022/05/13 20:25:04;;;;;;;0.90;0.40;;;23.40;80.60;;;;;;20712011;28;20267;-69
2022/05/13 20:35:08;;;;;;;1.10;0.40;;;;;;;;;;20692391;28;20752;-69
2022/05/13 20:45:10;;;;;;;1.70;0.80;;;;;;;;;;20709830;28;20577;-69
2022/05/13 20:55:12;;;;;;;0.80;0.70;;;;;;;;;;20714875;28;20234;-68
2022/05/13 21:05:17;;;;;;;0.85;0.40;;;22.80;78.60;;;;;;20718155;28;20709;-69
2022/05/13 21:15:19;;;;;;;1.13;0.50;;;;;;;;;;20719975;28;20838;-69
2022/05/13 21:25:26;;;;;;;0.68;0.40;;;;;;;;;;20708466;28;20270;-68
2022/05/13 21:45:49;;;;;;;0.90;0.32;;;;;;;;;;20710876;28;20253;-69
2022/05/13 21:55:51;;;;;;;1.00;0.43;;;;;;;;;;20723221;28;20261;-70
2022/05/13 22:05:53;;;;;;;0.60;0.40;;;21.80;82.60;;;;;;20705063;28;20227;-67
2022/05/13 22:15:55;;;;;;;1.75;0.43;;;;;;;;;;20718651;28;20238;-67
2022/05/13 22:25:57;;;;;;;1.35;0.30;;;;;;;;;;20704311;28;20202;-69
2022/05/13 22:36:00;;;;;;;1.45;0.45;;;21.50;83.30;;;;;;20729345;28;20801;-67
2022/05/13 22:46:03;;;;;;;1.15;0.35;;;;;;;;;;20784959;28;20210;-69
2022/05/13 22:56:10;;;;;;;1.80;0.50;;;21.20;89.20;;;;;;20805445;28;20225;-69
2022/05/13 23:16:34;;;;;;;0.30;0.30;;;;;;;;;;20711174;28;20258;-68
2022/05/13 23:26:35;;;;;;;0.30;0.30;;;;;;;;;;20707305;28;20267;-68
2022/05/13 23:36:37;;;;;;;0.40;0.30;;;;;;;;;;20705433;28;20565;-68
2022/05/13 23:46:40;;;;;;;0.57;0.20;;;;;;;;;;20725933;28;20227;-68
2022/05/13 23:56:42;;;;;;;0.20;0.20;;;;;;;;;;20706606;28;20216;-68
